sensor_id;sensor_type;location;lat;lon;timestamp;pressure;altitude;pressure_sealevel;temperature;humidity
47897;BME280;39629;51.400;5.494;2023-11-19T00:03:30;100638.22;;;12.05;100.00
47897;BME280;39629;51.400;5.494;2023-11-19T00:08:34;100632.13;;;12.01;100.00
47897;BME280;39629;51.400;5.494;2023-11-19T00:13:36;100629.53;;;11.98;100.00
47897;BME280;39629;51.400;5.494;2023-11-19T00:18:41;100626.03;;;11.95;100.00
47897;BME280;39629;51.400;5.494;2023-11-19T00:23:44;100610.91;;;12.10;100.00
47897;BME280;39629;51.400;5.494;2023-11-19T00:28:48;100604.88;;;12.02;100.00
47897;BME280;39629;51.400;5.494;2023-11-19T00:33:52;100576.66;;;12.06;100.00
47897;BME280;39629;51.400;5.494;2023-11-19T00:38:55;100577.56;;;12.03;100.00
47897;BME280;39629;51.400;5.494;2023-11-19T00:43:58;100587.16;;;12.09;100.00
47897;BME280;39629;51.400;5.494;2023-11-19T00:49:02;100596.00;;;12.08;100.00
47897;BME280;39629;51.400;5.494;2023-11-19T00:54:05;100580.19;;;12.08;100.00
47897;BME280;39629;51.400;5.494;2023-11-19T00:59:08;100585.44;;;12.08;100.00
47897;BME280;39629;51.400;5.494;2023-11-19T01:04:11;100597.78;;;12.06;100.00
47897;BME280;39629;51.400;5.494;2023-11-19T01:09:13;100579.28;;;12.07;100.00
47897;BME280;39629;51.400;5.494;2023-11-19T01:14:16;100585.50;;;12.02;100.00
47897;BME280;39629;51.400;5.494;2023-11-19T01:19:20;100589.97;;;11.98;100.00
47897;BME280;39629;51.400;5.494;2023-11-19T01:24:23;100602.25;;;11.98;100.00
47897;BME280;39629;51.400;5.494;2023-11-19T01:29:30;100583.78;;;12.01;100.00
47897;BME280;39629;51.400;5.494;2023-11-19T01:34:35;100570.69;;;11.93;100.00
47897;BME280;39629;51.400;5.494;2023-11-19T01:39:38;100554.88;;;11.93;100.00
47897;BME280;39629;51.400;5.494;2023-11-19T01:44:41;100552.31;;;11.85;100.00
47897;BME280;39629;51.400;5.494;2023-11-19T01:49:48;100568.06;;;11.91;100.00
47897;BME280;39629;51.400;5.494;2023-11-19T01:54:53;100545.16;;;11.95;100.00
47897;BME280;39629;51.400;5.494;2023-11-19T01:59:55;100551.38;;;11.91;100.00
47897;BME280;39629;51.400;5.494;2023-11-19T02:05:00;100564.56;;;11.89;100.00
47897;BME280;39629;51.400;5.494;2023-11-19T02:10:03;100571.69;;;11.84;100.00
47897;BME280;39629;51.400;5.494;2023-11-19T02:15:07;100573.66;;;11.65;100.00
47897;BME280;39629;51.400;5.494;2023-11-19T02:20:11;100564.84;;;11.68;100.00
47897;BME280;39629;51.400;5.494;2023-11-19T02:25:21;100566.78;;;11.52;100.00
47897;BME280;39629;51.400;5.494;2023-11-19T02:30:27;100551.91;;;11.46;100.00
47897;BME280;39629;51.400;5.494;2023-11-19T02:35:30;100550.22;;;11.40;100.00
47897;BME280;39629;51.400;5.494;2023-11-19T02:40:32;100543.97;;;11.51;100.00
47897;BME280;39629;51.400;5.494;2023-11-19T02:45:36;100548.50;;;11.36;100.00
47897;BME280;39629;51.400;5.494;2023-11-19T02:50:39;100551.25;;;11.24;100.00
47897;BME280;39629;51.400;5.494;2023-11-19T02:55:43;100536.22;;;11.37;100.00
47897;BME280;39629;51.400;5.494;2023-11-19T03:00:52;100563.72;;;11.08;100.00
47897;BME280;39629;51.400;5.494;2023-11-19T03:05:58;100528.72;;;10.98;100.00
47897;BME280;39629;51.400;5.494;2023-11-19T03:11:02;100545.34;;;11.00;100.00
47897;BME280;39629;51.400;5.494;2023-11-19T03:16:07;100544.53;;;10.94;100.00
47897;BME280;39629;51.400;5.494;2023-11-19T03:21:11;100543.75;;;10.87;100.00
47897;BME280;39629;51.400;5.494;2023-11-19T03:26:16;100555.97;;;10.93;100.00
47897;BME280;39629;51.400;5.494;2023-11-19T03:31:20;100551.69;;;10.76;100.00
47897;BME280;39629;51.400;5.494;2023-11-19T03:36:22;100555.16;;;10.78;100.00
47897;BME280;39629;51.400;5.494;2023-11-19T03:41:24;100549.00;;;10.82;100.00
47897;BME280;39629;51.400;5.494;2023-11-19T03:46:29;100543.81;;;10.74;100.00
47897;BME280;39629;51.400;5.494;2023-11-19T03:51:31;100549.88;;;10.81;100.00
47897;BME280;39629;51.400;5.494;2023-11-19T03:56:33;100552.50;;;10.86;100.00
47897;BME280;39629;51.400;5.494;2023-11-19T04:01:37;100569.16;;;10.83;100.00
47897;BME280;39629;51.400;5.494;2023-11-19T04:06:40;100571.84;;;10.76;100.00
47897;BME280;39629;51.400;5.494;2023-11-19T04:11:42;100564.06;;;10.65;100.00
47897;BME280;39629;51.400;5.494;2023-11-19T04:16:49;100562.16;;;10.85;100.00
47897;BME280;39629;51.400;5.494;2023-11-19T04:21:51;100562.16;;;10.88;100.00
47897;BME280;39629;51.400;5.494;2023-11-19T04:26:54;100561.28;;;10.86;100.00
47897;BME280;39629;51.400;5.494;2023-11-19T04:31:59;100574.44;;;10.86;100.00
47897;BME280;39629;51.400;5.494;2023-11-19T04:37:02;100588.56;;;10.70;100.00
47897;BME280;39629;51.400;5.494;2023-11-19T04:42:05;100579.72;;;10.77;100.00
47897;BME280;39629;51.400;5.494;2023-11-19T04:47:09;100562.34;;;10.61;100.00
47897;BME280;39629;51.400;5.494;2023-11-19T04:52:12;100559.56;;;10.79;100.00
47897;BME280;39629;51.400;5.494;2023-11-19T04:57:14;100573.56;;;10.81;100.00
47897;BME280;39629;51.400;5.494;2023-11-19T05:02:17;100578.97;;;10.63;100.00
47897;BME280;39629;51.400;5.494;2023-11-19T05:07:19;100591.16;;;10.76;100.00
47897;BME280;39629;51.400;5.494;2023-11-19T05:12:27;100595.63;;;10.62;100.00
47897;BME280;39629;51.400;5.494;2023-11-19T05:17:31;100597.31;;;10.75;100.00
47897;BME280;39629;51.400;5.494;2023-11-19T05:22:33;100601.81;;;10.57;100.00
47897;BME280;39629;51.400;5.494;2023-11-19T05:27:37;100590.53;;;10.42;100.00
47897;BME280;39629;51.400;5.494;2023-11-19T05:32:40;100590.47;;;10.49;100.00
47897;BME280;39629;51.400;5.494;2023-11-19T05:37:45;100608.97;;;10.38;100.00
47897;BME280;39629;51.400;5.494;2023-11-19T05:42:50;100592.28;;;10.38;100.00
47897;BME280;39629;51.400;5.494;2023-11-19T05:47:55;100596.69;;;10.36;100.00
47897;BME280;39629;51.400;5.494;2023-11-19T05:52:57;100607.25;;;10.28;100.00
47897;BME280;39629;51.400;5.494;2023-11-19T05:57:59;100590.63;;;10.21;100.00
47897;BME280;39629;51.400;5.494;2023-11-19T06:03:03;100599.41;;;10.23;100.00
47897;BME280;39629;51.400;5.494;2023-11-19T06:08:06;100597.66;;;10.19;100.00
47897;BME280;39629;51.400;5.494;2023-11-19T06:13:08;100613.50;;;10.04;100.00
47897;BME280;39629;51.400;5.494;2023-11-19T06:18:13;100612.63;;;10.03;100.00
47897;BME280;39629;51.400;5.494;2023-11-19T06:23:16;100601.34;;;9.84;100.00
47897;BME280;39629;51.400;5.494;2023-11-19T06:28:19;100608.31;;;9.92;100.00
47897;BME280;39629;51.400;5.494;2023-11-19T06:33:23;100616.19;;;9.92;100.00
47897;BME280;39629;51.400;5.494;2023-11-19T06:38:26;100617.13;;;9.75;100.00
47897;BME280;39629;51.400;5.494;2023-11-19T06:43:28;100597.84;;;9.78;100.00
47897;BME280;39629;51.400;5.494;2023-11-19T06:48:31;100604.84;;;9.77;100.00
47897;BME280;39629;51.400;5.494;2023-11-19T06:53:33;100604.91;;;9.59;100.00
47897;BME280;39629;51.400;5.494;2023-11-19T06:58:37;100608.41;;;9.54;100.00
47897;BME280;39629;51.400;5.494;2023-11-19T07:03:42;100623.28;;;9.69;100.00
47897;BME280;39629;51.400;5.494;2023-11-19T07:08:44;100624.16;;;9.64;100.00
47897;BME280;39629;51.400;5.494;2023-11-19T07:13:47;100645.16;;;9.67;100.00
47897;BME280;39629;51.400;5.494;2023-11-19T07:18:51;100641.66;;;9.68;100.00
47897;BME280;39629;51.400;5.494;2023-11-19T07:23:55;100653.91;;;9.77;100.00
47897;BME280;39629;51.400;5.494;2023-11-19T07:28:57;100663.53;;;9.79;100.00
47897;BME280;39629;51.400;5.494;2023-11-19T07:34:02;100657.38;;;9.96;100.00
47897;BME280;39629;51.400;5.494;2023-11-19T07:39:04;100674.88;;;9.91;100.00
47897;BME280;39629;51.400;5.494;2023-11-19T07:44:08;100667.88;;;9.91;100.00
47897;BME280;39629;51.400;5.494;2023-11-19T07:49:14;100667.84;;;10.05;100.00
47897;BME280;39629;51.400;5.494;2023-11-19T07:54:17;100664.34;;;10.03;100.00
47897;BME280;39629;51.400;5.494;2023-11-19T07:59:20;100666.06;;;10.07;100.00
47897;BME280;39629;51.400;5.494;2023-11-19T08:04:23;100662.56;;;10.10;100.00
47897;BME280;39629;51.400;5.494;2023-11-19T08:09:27;100674.84;;;10.04;100.00
47897;BME280;39629;51.400;5.494;2023-11-19T08:14:30;100679.19;;;10.19;100.00
47897;BME280;39629;51.400;5.494;2023-11-19T08:19:37;100686.16;;;10.33;100.00
47897;BME280;39629;51.400;5.494;2023-11-19T08:24:40;100686.97;;;10.44;100.00
47897;BME280;39629;51.400;5.494;2023-11-19T08:29:44;100667.66;;;10.45;100.00
47897;BME280;39629;51.400;5.494;2023-11-19T08:34:48;100672.94;;;10.42;100.00
47897;BME280;39629;51.400;5.494;2023-11-19T08:39:52;100677.31;;;10.46;100.00
47897;BME280;39629;51.400;5.494;2023-11-19T08:44:56;100667.59;;;10.61;100.00
47897;BME280;39629;51.400;5.494;2023-11-19T08:50:00;100674.50;;;10.77;100.00
47897;BME280;39629;51.400;5.494;2023-11-19T08:55:04;100681.53;;;10.84;100.00
47897;BME280;39629;51.400;5.494;2023-11-19T09:00:08;100689.34;;;10.92;100.00
47897;BME280;39629;51.400;5.494;2023-11-19T09:05:13;100684.97;;;10.89;100.00
47897;BME280;39629;51.400;5.494;2023-11-19T09:10:17;100684.81;;;11.14;100.00
47897;BME280;39629;51.400;5.494;2023-11-19T09:15:20;100691.66;;;11.34;100.00
47897;BME280;39629;51.400;5.494;2023-11-19T09:20:26;100682.03;;;11.34;100.00
47897;BME280;39629;51.400;5.494;2023-11-19T09:25:28;100688.91;;;11.48;100.00
47897;BME280;39629;51.400;5.494;2023-11-19T09:30:30;100688.00;;;11.50;100.00
47897;BME280;39629;51.400;5.494;2023-11-19T09:35:38;100665.97;;;11.61;100.00
47897;BME280;39629;51.400;5.494;2023-11-19T09:40:42;100687.97;;;11.56;100.00
47897;BME280;39629;51.400;5.494;2023-11-19T09:45:48;100676.41;;;11.68;100.00
47897;BME280;39629;51.400;5.494;2023-11-19T09:50:54;100681.56;;;11.82;100.00
47897;BME280;39629;51.400;5.494;2023-11-19T09:55:56;100680.69;;;11.82;100.00
47897;BME280;39629;51.400;5.494;2023-11-19T10:01:01;100693.69;;;11.99;100.00
47897;BME280;39629;51.400;5.494;2023-11-19T10:06:10;100675.91;;;12.16;100.00
47897;BME280;39629;51.400;5.494;2023-11-19T10:11:13;100673.34;;;12.10;100.00
47897;BME280;39629;51.400;5.494;2023-11-19T10:16:17;100660.97;;;12.15;100.00
47897;BME280;39629;51.400;5.494;2023-11-19T10:21:22;100665.28;;;12.21;100.00
47897;BME280;39629;51.400;5.494;2023-11-19T10:26:25;100674.19;;;12.14;100.00
47897;BME280;39629;51.400;5.494;2023-11-19T10:31:28;100679.19;;;12.37;100.00
47897;BME280;39629;51.400;5.494;2023-11-19T10:36:41;100673.78;;;12.48;100.00
47897;BME280;39629;51.400;5.494;2023-11-19T10:41:43;100673.78;;;12.46;100.00
47897;BME280;39629;51.400;5.494;2023-11-19T10:46:46;100685.28;;;12.40;100.00
47897;BME280;39629;51.400;5.494;2023-11-19T10:51:53;100671.09;;;12.49;100.00
47897;BME280;39629;51.400;5.494;2023-11-19T10:57:00;100670.47;;;12.30;100.00
47897;BME280;39629;51.400;5.494;2023-11-19T11:02:03;100673.56;;;12.63;100.00
47897;BME280;39629;51.400;5.494;2023-11-19T11:07:10;100659.69;;;12.49;100.00
47897;BME280;39629;51.400;5.494;2023-11-19T11:12:15;100665.09;;;12.36;100.00
47897;BME280;39629;51.400;5.494;2023-11-19T11:17:20;100655.53;;;12.27;100.00
47897;BME280;39629;51.400;5.494;2023-11-19T11:22:28;100654.72;;;12.22;100.00
47897;BME280;39629;51.400;5.494;2023-11-19T11:27:58;100646.06;;;12.11;100.00
47897;BME280;39629;51.400;5.494;2023-11-19T11:33:20;100651.41;;;12.05;100.00
47897;BME280;39629;51.400;5.494;2023-11-19T11:38:28;100666.78;;;11.69;100.00
47897;BME280;39629;51.400;5.494;2023-11-19T11:43:43;100651.16;;;11.47;100.00
47897;BME280;39629;51.400;5.494;2023-11-19T11:48:46;100642.44;;;11.39;100.00
47897;BME280;39629;51.400;5.494;2023-11-19T11:53:52;100622.38;;;11.29;100.00
47897;BME280;39629;51.400;5.494;2023-11-19T11:58:55;100625.41;;;11.74;100.00
47897;BME280;39629;51.400;5.494;2023-11-19T12:04:01;100623.31;;;12.02;100.00
47897;BME280;39629;51.400;5.494;2023-11-19T12:09:05;100612.69;;;12.08;100.00
47897;BME280;39629;51.400;5.494;2023-11-19T12:14:08;100609.97;;;12.16;100.00
47897;BME280;39629;51.400;5.494;2023-11-19T12:19:11;100608.28;;;12.09;100.00
47897;BME280;39629;51.400;5.494;2023-11-19T12:24:15;100594.13;;;12.18;100.00
47897;BME280;39629;51.400;5.494;2023-11-19T12:29:18;100594.19;;;12.10;100.00
47897;BME280;39629;51.400;5.494;2023-11-19T12:34:22;100614.47;;;12.08;100.00
47897;BME280;39629;51.400;5.494;2023-11-19T12:39:25;100615.19;;;12.19;100.00
47897;BME280;39629;51.400;5.494;2023-11-19T12:44:32;100609.00;;;12.22;100.00
47897;BME280;39629;51.400;5.494;2023-11-19T12:49:35;100623.25;;;12.07;100.00
47897;BME280;39629;51.400;5.494;2023-11-19T12:54:39;100615.28;;;12.12;100.00
47897;BME280;39629;51.400;5.494;2023-11-19T12:59:41;100617.06;;;12.11;100.00
47897;BME280;39629;51.400;5.494;2023-11-19T13:04:43;100617.22;;;11.97;100.00
47897;BME280;39629;51.400;5.494;2023-11-19T13:09:48;100614.06;;;11.69;100.00
47897;BME280;39629;51.400;5.494;2023-11-19T13:14:52;100621.28;;;11.45;100.00
47897;BME280;39629;51.400;5.494;2023-11-19T13:19:56;100615.22;;;11.40;100.00
47897;BME280;39629;51.400;5.494;2023-11-19T13:25:01;100601.81;;;11.62;100.00
47897;BME280;39629;51.400;5.494;2023-11-19T13:30:06;100606.09;;;11.72;100.00
47897;BME280;39629;51.400;5.494;2023-11-19T13:35:08;100598.19;;;11.72;100.00
47897;BME280;39629;51.400;5.494;2023-11-19T13:40:13;100603.63;;;11.55;100.00
47897;BME280;39629;51.400;5.494;2023-11-19T13:45:16;100593.28;;;11.38;100.00
47897;BME280;39629;51.400;5.494;2023-11-19T13:50:19;100605.69;;;11.27;100.00
47897;BME280;39629;51.400;5.494;2023-11-19T13:55:25;100591.47;;;11.43;100.00
47897;BME280;39629;51.400;5.494;2023-11-19T14:00:27;100594.94;;;11.48;100.00
47897;BME280;39629;51.400;5.494;2023-11-19T14:05:30;100582.72;;;11.38;100.00
47897;BME280;39629;51.400;5.494;2023-11-19T14:10:34;100592.47;;;11.30;100.00
47897;BME280;39629;51.400;5.494;2023-11-19T14:15:37;100593.38;;;11.25;100.00
47897;BME280;39629;51.400;5.494;2023-11-19T14:20:41;100584.84;;;11.00;100.00
47897;BME280;39629;51.400;5.494;2023-11-19T14:25:45;100589.22;;;11.01;100.00
47897;BME280;39629;51.400;5.494;2023-11-19T14:30:49;100594.56;;;10.94;100.00
47897;BME280;39629;51.400;5.494;2023-11-19T14:35:57;100577.91;;;10.93;100.00
47897;BME280;39629;51.400;5.494;2023-11-19T14:41:01;100572.66;;;10.90;100.00
47897;BME280;39629;51.400;5.494;2023-11-19T14:46:06;100567.34;;;10.96;100.00
47897;BME280;39629;51.400;5.494;2023-11-19T14:51:08;100576.19;;;10.87;100.00
47897;BME280;39629;51.400;5.494;2023-11-19T14:56:13;100580.63;;;10.76;100.00
47897;BME280;39629;51.400;5.494;2023-11-19T15:01:15;100564.00;;;10.69;100.00
47897;BME280;39629;51.400;5.494;2023-11-19T15:06:17;100562.25;;;10.70;100.00
47897;BME280;39629;51.400;5.494;2023-11-19T15:11:22;100546.50;;;10.65;100.00
47897;BME280;39629;51.400;5.494;2023-11-19T15:16:24;100555.34;;;10.56;100.00
47897;BME280;39629;51.400;5.494;2023-11-19T15:21:32;100550.06;;;10.58;100.00
47897;BME280;39629;51.400;5.494;2023-11-19T15:26:36;100547.41;;;10.63;100.00
47897;BME280;39629;51.400;5.494;2023-11-19T15:31:38;100550.00;;;10.66;100.00
47897;BME280;39629;51.400;5.494;2023-11-19T15:36:41;100548.31;;;10.59;100.00
47897;BME280;39629;51.400;5.494;2023-11-19T15:41:46;100565.88;;;10.56;100.00
47897;BME280;39629;51.400;5.494;2023-11-19T15:46:48;100563.25;;;10.56;100.00
47897;BME280;39629;51.400;5.494;2023-11-19T15:51:50;100560.63;;;10.50;100.00
47897;BME280;39629;51.400;5.494;2023-11-19T15:56:54;100554.44;;;10.59;100.00
47897;BME280;39629;51.400;5.494;2023-11-19T16:01:56;100552.66;;;10.63;100.00
47897;BME280;39629;51.400;5.494;2023-11-19T16:06:59;100564.91;;;10.67;100.00
47897;BME280;39629;51.400;5.494;2023-11-19T16:12:04;100563.22;;;10.58;100.00
47897;BME280;39629;51.400;5.494;2023-11-19T16:17:08;100564.13;;;10.54;100.00
47897;BME280;39629;51.400;5.494;2023-11-19T16:22:10;100557.13;;;10.51;100.00
47897;BME280;39629;51.400;5.494;2023-11-19T16:27:14;100546.66;;;10.42;100.00
47897;BME280;39629;51.400;5.494;2023-11-19T16:32:17;100548.47;;;10.38;100.00
47897;BME280;39629;51.400;5.494;2023-11-19T16:37:19;100549.31;;;10.40;100.00
47897;BME280;39629;51.400;5.494;2023-11-19T16:42:24;100537.06;;;10.36;100.00
47897;BME280;39629;51.400;5.494;2023-11-19T16:47:26;100550.25;;;10.32;100.00
47897;BME280;39629;51.400;5.494;2023-11-19T16:52:29;100555.44;;;10.39;100.00
47897;BME280;39629;51.400;5.494;2023-11-19T16:57:34;100551.00;;;10.48;100.00
47897;BME280;39629;51.400;5.494;2023-11-19T17:02:38;100559.03;;;10.31;100.00
47897;BME280;39629;51.400;5.494;2023-11-19T17:07:43;100559.03;;;10.28;100.00
47897;BME280;39629;51.400;5.494;2023-11-19T17:12:47;100546.78;;;10.27;100.00
47897;BME280;39629;51.400;5.494;2023-11-19T17:17:49;100559.97;;;10.20;100.00
47897;BME280;39629;51.400;5.494;2023-11-19T17:22:52;100566.09;;;10.19;100.00
47897;BME280;39629;51.400;5.494;2023-11-19T17:27:59;100560.78;;;10.26;100.00
47897;BME280;39629;51.400;5.494;2023-11-19T17:33:01;100556.44;;;10.21;100.00
47897;BME280;39629;51.400;5.494;2023-11-19T17:38:06;100555.56;;;10.21;100.00
47897;BME280;39629;51.400;5.494;2023-11-19T17:43:11;100554.69;;;10.25;100.00
47897;BME280;39629;51.400;5.494;2023-11-19T17:48:13;100538.03;;;10.25;100.00
47897;BME280;39629;51.400;5.494;2023-11-19T17:53:15;100552.91;;;10.24;100.00
47897;BME280;39629;51.400;5.494;2023-11-19T17:58:20;100552.03;;;10.27;100.00
47897;BME280;39629;51.400;5.494;2023-11-19T18:03:22;100542.38;;;10.29;100.00
47897;BME280;39629;51.400;5.494;2023-11-19T18:08:25;100550.34;;;10.16;100.00
47897;BME280;39629;51.400;5.494;2023-11-19T18:13:30;100539.81;;;10.13;100.00
47897;BME280;39629;51.400;5.494;2023-11-19T18:18:34;100552.16;;;10.08;100.00
47897;BME280;39629;51.400;5.494;2023-11-19T18:23:38;100546.03;;;10.04;100.00
47897;BME280;39629;51.400;5.494;2023-11-19T18:28:57;100532.88;;;10.06;100.00
47897;BME280;39629;51.400;5.494;2023-11-19T18:34:01;100545.09;;;10.12;100.00
47897;BME280;39629;51.400;5.494;2023-11-19T18:39:05;100543.34;;;10.09;100.00
47897;BME280;39629;51.400;5.494;2023-11-19T18:44:11;100539.00;;;10.07;100.00
47897;BME280;39629;51.400;5.494;2023-11-19T18:49:14;100535.50;;;10.06;100.00
47897;BME280;39629;51.400;5.494;2023-11-19T18:54:17;100534.66;;;10.04;100.00
47897;BME280;39629;51.400;5.494;2023-11-19T18:59:23;100538.16;;;10.03;100.00
47897;BME280;39629;51.400;5.494;2023-11-19T19:04:26;100542.53;;;10.02;100.00
47897;BME280;39629;51.400;5.494;2023-11-19T19:09:29;100547.78;;;10.05;100.00
47897;BME280;39629;51.400;5.494;2023-11-19T19:14:33;100535.47;;;10.08;100.00
47897;BME280;39629;51.400;5.494;2023-11-19T19:19:35;100538.06;;;10.15;100.00
47897;BME280;39629;51.400;5.494;2023-11-19T19:24:38;100528.41;;;10.17;100.00
47897;BME280;39629;51.400;5.494;2023-11-19T19:29:43;100529.31;;;10.16;100.00
47897;BME280;39629;51.400;5.494;2023-11-19T19:34:45;100523.19;;;10.14;100.00
47897;BME280;39629;51.400;5.494;2023-11-19T19:39:47;100528.41;;;10.17;100.00
47897;BME280;39629;51.400;5.494;2023-11-19T19:44:51;100531.03;;;10.23;100.00
47897;BME280;39629;51.400;5.494;2023-11-19T19:49:53;100523.97;;;10.26;100.00
47897;BME280;39629;51.400;5.494;2023-11-19T19:54:56;100517.91;;;10.20;100.00
47897;BME280;39629;51.400;5.494;2023-11-19T20:00:00;100522.25;;;10.25;100.00
47897;BME280;39629;51.400;5.494;2023-11-19T20:05:11;100532.69;;;10.34;100.00
47897;BME280;39629;51.400;5.494;2023-11-19T20:10:13;100529.19;;;10.35;100.00
47897;BME280;39629;51.400;5.494;2023-11-19T20:15:17;100542.28;;;10.43;100.00
47897;BME280;39629;51.400;5.494;2023-11-19T20:20:22;100531.72;;;10.47;100.00
47897;BME280;39629;51.400;5.494;2023-11-19T20:25:25;100538.69;;;10.53;100.00
47897;BME280;39629;51.400;5.494;2023-11-19T20:30:30;100533.47;;;10.48;100.00
47897;BME280;39629;51.400;5.494;2023-11-19T20:35:32;100540.47;;;10.49;100.00
47897;BME280;39629;51.400;5.494;2023-11-19T20:40:34;100544.81;;;10.53;100.00
47897;BME280;39629;51.400;5.494;2023-11-19T20:45:38;100547.44;;;10.58;100.00
47897;BME280;39629;51.400;5.494;2023-11-19T20:50:40;100554.44;;;10.62;100.00
47897;BME280;39629;51.400;5.494;2023-11-19T20:55:43;100540.41;;;10.59;100.00
47897;BME280;39629;51.400;5.494;2023-11-19T21:00:48;100551.78;;;10.64;100.00
47897;BME280;39629;51.400;5.494;2023-11-19T21:05:50;100559.69;;;10.59;100.00
47897;BME280;39629;51.400;5.494;2023-11-19T21:10:54;100555.31;;;10.60;100.00
47897;BME280;39629;51.400;5.494;2023-11-19T21:16:01;100559.69;;;10.59;100.00
47897;BME280;39629;51.400;5.494;2023-11-19T21:21:04;100564.09;;;10.59;100.00
47897;BME280;39629;51.400;5.494;2023-11-19T21:26:07;100560.56;;;10.63;100.00
47897;BME280;39629;51.400;5.494;2023-11-19T21:31:16;100559.72;;;10.61;100.00
47897;BME280;39629;51.400;5.494;2023-11-19T21:36:19;100558.88;;;10.54;100.00
47897;BME280;39629;51.400;5.494;2023-11-19T21:41:22;100560.59;;;10.60;100.00
47897;BME280;39629;51.400;5.494;2023-11-19T21:46:25;100561.53;;;10.51;100.00
47897;BME280;39629;51.400;5.494;2023-11-19T21:51:29;100560.63;;;10.55;100.00
47897;BME280;39629;51.400;5.494;2023-11-19T21:56:31;100569.41;;;10.49;100.00
47897;BME280;39629;51.400;5.494;2023-11-19T22:01:36;100564.16;;;10.49;100.00
47897;BME280;39629;51.400;5.494;2023-11-19T22:06:38;100570.31;;;10.48;100.00
47897;BME280;39629;51.400;5.494;2023-11-19T22:11:41;100574.66;;;10.49;100.00
47897;BME280;39629;51.400;5.494;2023-11-19T22:16:45;100571.16;;;10.50;100.00
47897;BME280;39629;51.400;5.494;2023-11-19T22:21:48;100579.97;;;10.46;100.00
47897;BME280;39629;51.400;5.494;2023-11-19T22:26:50;100591.38;;;10.42;100.00
47897;BME280;39629;51.400;5.494;2023-11-19T22:31:54;100593.19;;;10.38;100.00
47897;BME280;39629;51.400;5.494;2023-11-19T22:36:56;100587.00;;;10.39;100.00
47897;BME280;39629;51.400;5.494;2023-11-19T22:41:59;100588.81;;;10.36;100.00
47897;BME280;39629;51.400;5.494;2023-11-19T22:47:03;100587.94;;;10.31;100.00
47897;BME280;39629;51.400;5.494;2023-11-19T22:52:06;100586.19;;;10.31;100.00
47897;BME280;39629;51.400;5.494;2023-11-19T22:57:08;100585.31;;;10.37;100.00
47897;BME280;39629;51.400;5.494;2023-11-19T23:02:12;100576.59;;;10.29;100.00
47897;BME280;39629;51.400;5.494;2023-11-19T23:07:15;100580.94;;;10.33;100.00
47897;BME280;39629;51.400;5.494;2023-11-19T23:12:18;100594.06;;;10.36;100.00
47897;BME280;39629;51.400;5.494;2023-11-19T23:17:21;100587.91;;;10.35;100.00
47897;BME280;39629;51.400;5.494;2023-11-19T23:22:27;100594.94;;;10.33;100.00
47897;BME280;39629;51.400;5.494;2023-11-19T23:27:30;100594.09;;;10.33;100.00
47897;BME280;39629;51.400;5.494;2023-11-19T23:32:34;100592.28;;;10.43;100.00
47897;BME280;39629;51.400;5.494;2023-11-19T23:37:36;100594.00;;;10.44;100.00
47897;BME280;39629;51.400;5.494;2023-11-19T23:42:39;100588.78;;;10.37;100.00
47897;BME280;39629;51.400;5.494;2023-11-19T23:47:45;100592.25;;;10.41;100.00
47897;BME280;39629;51.400;5.494;2023-11-19T23:52:47;100593.97;;;10.50;100.00
47897;BME280;39629;51.400;5.494;2023-11-19T23:57:49;100594.91;;;10.43;100.00
